HTKJ

Kilimanjaro International Airport

Arusha, Tanzania
METAR HTKJ 271100Z 00000KT 9999 FEW030CB BKN032 26/18 Q1018 NOSIG
Observed Flight Rules
May-27 @ 11:00 UTC (an hour ago) Visual Flight Rules
Visibility Clouds
10,000+ meters
  • Few at 3,000' AGL
  • Broken at 3,200' AGL
Temperatures Readings
Current 26°C / 79°F
Dewpoint 18°C / 64°F
Humidity 61%
Altimeter 30.06" Hg
Pressure 1018 hPa
Elevation 896
METAR HTKJ 271100Z 00000KT 9999 FEW030CB BKN032 26/18 Q1018 NOSIG
Observed Flight Rules
May-27 @ 11:00 UTC
(an hour ago)
VFR
Clouds
  • Few at 3,000' AGL
  • Broken at 3,200' AGL
Temperature Dewpoint
26°C / 79°F 18°C / 64°F
Humidity Altimeter Pressure
61% 30.06" Hg 1018 hPa